Time;durP1;ratioP1;P1;durP2;ratioP2;P2;SDS_P1;SDS_P2;PMS_P1;PMS_P2;Temp;Humidity;BMP_temperature;BMP_pressure;BME280_temperature;BME280_humidity;BME280_pressure;Samples;Min_cycle;Max_cycle;Signal;HPM_P1;HPM_P2
2021/06/30 00:01:58;;;;;;;2.13;2.03;;;15.00;99.90;;;;;;5050484;28;20618;-83
2021/06/30 00:04:26;;;;;;;2.90;2.70;;;15.10;99.90;;;;;;5049565;28;21159;-83
2021/06/30 00:06:54;;;;;;;3.30;2.80;;;15.20;99.90;;;;;;5050419;28;20624;-83
2021/06/30 00:09:22;;;;;;;3.40;2.10;;;15.30;99.90;;;;;;5050539;28;20710;-82
2021/06/30 00:11:49;;;;;;;2.07;1.97;;;15.40;99.90;;;;;;5050310;28;20645;-83
2021/06/30 00:14:16;;;;;;;2.67;2.47;;;15.40;99.90;;;;;;5050016;28;20607;-83
2021/06/30 00:16:44;;;;;;;3.20;2.43;;;15.40;99.90;;;;;;5058529;28;20973;-83
2021/06/30 00:19:12;;;;;;;2.73;2.53;;;15.40;99.90;;;;;;5070348;28;20694;-83
2021/06/30 00:21:39;;;;;;;2.70;2.50;;;15.50;99.90;;;;;;5070454;28;20730;-83
2021/06/30 00:24:08;;;;;;;2.23;2.13;;;15.40;99.90;;;;;;5070408;28;20665;-83
2021/06/30 00:26:36;;;;;;;4.80;2.10;;;15.50;99.90;;;;;;5069884;28;20732;-83
2021/06/30 00:29:03;;;;;;;2.47;2.27;;;15.40;99.90;;;;;;5070414;28;20655;-83
2021/06/30 00:31:30;;;;;;;2.50;2.30;;;15.40;99.90;;;;;;5069757;28;20626;-82
2021/06/30 00:34:01;;;;;;;5.00;1.83;;;15.30;99.90;;;;;;5070121;28;21158;-83
2021/06/30 00:36:30;;;;;;;2.27;2.10;;;15.40;99.90;;;;;;5069023;28;20612;-83
2021/06/30 00:38:57;;;;;;;2.10;1.90;;;15.40;99.90;;;;;;5070335;28;21079;-83
2021/06/30 00:41:26;;;;;;;2.10;2.00;;;15.40;99.90;;;;;;5069840;28;20677;-83
2021/06/30 00:43:52;;;;;;;2.10;1.83;;;15.50;99.90;;;;;;5069746;28;20598;-83
2021/06/30 00:46:25;;;;;;;3.10;2.60;;;15.50;99.90;;;;;;5069554;28;20613;-83
2021/06/30 00:48:52;;;;;;;2.20;2.10;;;15.60;99.90;;;;;;5073160;28;21150;-83
2021/06/30 00:51:19;;;;;;;2.63;2.00;;;15.60;99.90;;;;;;5074126;28;20645;-83
2021/06/30 00:53:46;;;;;;;2.20;2.00;;;15.50;99.90;;;;;;5074195;28;20644;-83
2021/06/30 00:56:13;;;;;;;2.20;2.00;;;15.50;99.90;;;;;;5073447;28;21173;-83
2021/06/30 00:58:42;;;;;;;2.10;2.00;;;15.50;99.90;;;;;;5073552;28;20961;-83
2021/06/30 01:01:09;;;;;;;2.67;2.50;;;15.40;99.90;;;;;;5074137;28;20697;-83
2021/06/30 01:03:37;;;;;;;1.70;1.60;;;15.40;99.90;;;;;;5073371;28;20613;-83
2021/06/30 01:06:06;;;;;;;2.10;2.00;;;15.40;99.90;;;;;;5073476;28;21069;-84
2021/06/30 01:08:34;;;;;;;2.27;2.07;;;15.40;99.90;;;;;;5073816;28;20971;-83
2021/06/30 01:11:03;;;;;;;6.30;2.47;;;15.40;99.90;;;;;;5073339;28;20617;-83
2021/06/30 01:13:30;;;;;;;2.00;1.80;;;15.40;99.90;;;;;;5064449;28;20732;-83
2021/06/30 01:16:00;;;;;;;1.80;1.70;;;15.50;99.90;;;;;;5059792;28;20722;-83
2021/06/30 01:18:31;;;;;;;2.37;2.00;;;15.50;99.90;;;;;;5059397;28;20622;-83
2021/06/30 01:21:03;;;;;;;2.17;1.87;;;15.30;99.90;;;;;;5069627;28;20646;-83
2021/06/30 01:23:33;;;;;;;2.40;2.07;;;15.30;99.90;;;;;;5052985;28;20609;-84
2021/06/30 01:26:01;;;;;;;1.87;1.77;;;15.30;99.90;;;;;;5062808;28;20957;-83
2021/06/30 01:28:32;;;;;;;2.17;1.57;;;15.30;99.90;;;;;;5073322;28;20617;-83
2021/06/30 01:31:00;;;;;;;4.23;1.73;;;15.40;99.90;;;;;;5073596;28;21071;-83
2021/06/30 01:33:28;;;;;;;1.30;1.30;;;15.30;99.90;;;;;;5072356;28;20606;-83
2021/06/30 01:35:56;;;;;;;1.70;1.53;;;15.20;99.90;;;;;;5052006;28;20999;-82
2021/06/30 01:38:29;;;;;;;3.27;1.50;;;15.20;99.90;;;;;;5053494;28;20733;-83
2021/06/30 01:41:00;;;;;;;3.27;1.40;;;15.10;99.90;;;;;;5053562;28;21015;-83
2021/06/30 01:43:29;;;;;;;1.67;1.57;;;15.20;99.90;;;;;;5053128;28;21081;-83
2021/06/30 01:45:58;;;;;;;2.97;1.90;;;15.30;99.90;;;;;;5052676;28;20625;-82
2021/06/30 01:48:26;;;;;;;1.67;1.57;;;15.30;99.90;;;;;;5052802;28;20610;-84
2021/06/30 01:50:54;;;;;;;2.00;1.57;;;15.30;99.90;;;;;;5056719;28;21051;-84
2021/06/30 01:53:22;;;;;;;2.40;1.90;;;15.30;99.90;;;;;;5072898;28;20602;-84
2021/06/30 01:55:50;;;;;;;1.20;1.10;;;15.10;99.90;;;;;;5072373;28;21117;-85
2021/06/30 01:58:21;;;;;;;1.53;1.43;;;15.20;99.90;;;;;;5072607;28;20711;-85
2021/06/30 02:00:51;;;;;;;1.20;1.00;;;15.10;99.90;;;;;;5072858;28;20633;-85
2021/06/30 02:03:19;;;;;;;1.40;1.20;;;14.90;99.90;;;;;;5072565;28;20616;-85
2021/06/30 02:05:47;;;;;;;2.43;1.33;;;14.80;99.90;;;;;;5072429;28;20597;-85
2021/06/30 02:08:17;;;;;;;1.67;1.03;;;14.80;99.90;;;;;;5072575;28;20649;-84
2021/06/30 02:10:46;;;;;;;1.10;1.10;;;14.80;99.90;;;;;;5072923;28;20660;-86
2021/06/30 02:13:14;;;;;;;1.70;1.47;;;14.70;99.90;;;;;;5072758;28;20666;-85
2021/06/30 02:15:43;;;;;;;1.13;1.10;;;14.70;99.90;;;;;;5072085;28;20656;-85
2021/06/30 02:18:13;;;;;;;1.40;1.30;;;14.50;99.90;;;;;;5072640;28;21166;-85
2021/06/30 02:20:42;;;;;;;1.33;1.30;;;14.40;99.90;;;;;;5072649;28;20636;-85
2021/06/30 02:23:12;;;;;;;3.63;1.27;;;14.40;99.90;;;;;;5072445;28;20627;-85
2021/06/30 02:25:40;;;;;;;1.17;1.07;;;14.40;99.90;;;;;;5062859;28;20626;-85
2021/06/30 02:28:08;;;;;;;1.10;1.10;;;14.40;99.90;;;;;;5051724;28;21174;-83
2021/06/30 02:30:36;;;;;;;1.00;1.00;;;14.50;99.90;;;;;;5052345;28;20617;-85
2021/06/30 02:33:05;;;;;;;1.20;1.10;;;14.30;99.90;;;;;;5052517;28;20610;-84
2021/06/30 02:35:33;;;;;;;0.90;0.90;;;14.30;99.90;;;;;;5051405;28;20621;-85
2021/06/30 02:38:01;;;;;;;0.97;0.77;;;14.20;99.90;;;;;;5052299;28;20614;-85
2021/06/30 02:40:28;;;;;;;2.27;0.90;;;14.20;99.90;;;;;;5052085;28;20680;-85
2021/06/30 02:42:56;;;;;;;0.87;0.87;;;14.20;99.90;;;;;;5052056;28;20625;-85
2021/06/30 02:45:23;;;;;;;1.27;1.00;;;14.20;99.90;;;;;;5051790;28;20611;-84
2021/06/30 02:47:51;;;;;;;0.60;0.60;;;14.20;99.90;;;;;;5052048;28;21164;-85
2021/06/30 02:50:20;;;;;;;1.03;0.93;;;14.00;99.90;;;;;;5052133;28;20616;-86
2021/06/30 02:52:49;;;;;;;1.53;0.87;;;14.10;99.90;;;;;;5051973;28;20676;-85
2021/06/30 02:55:16;;;;;;;0.87;0.87;;;14.10;99.90;;;;;;5051291;28;21151;-86
2021/06/30 02:57:44;;;;;;;0.70;0.70;;;14.10;99.90;;;;;;5051911;28;21170;-85
2021/06/30 03:00:14;;;;;;;1.03;0.77;;;14.10;99.90;;;;;;5051854;28;20607;-86
2021/06/30 03:02:41;;;;;;;0.77;0.70;;;13.90;99.90;;;;;;5052011;28;20716;-85
2021/06/30 03:05:10;;;;;;;0.60;0.60;;;13.90;99.90;;;;;;5051142;28;21147;-85
2021/06/30 03:07:38;;;;;;;0.77;0.77;;;13.90;99.90;;;;;;5051276;28;20971;-85
2021/06/30 03:10:07;;;;;;;0.80;0.80;;;14.00;99.90;;;;;;5051018;28;20682;-84
2021/06/30 03:12:34;;;;;;;0.67;0.67;;;14.00;99.90;;;;;;5051631;28;20683;-84
2021/06/30 03:15:01;;;;;;;0.63;0.63;;;13.90;99.90;;;;;;5051187;28;20623;-84
2021/06/30 03:17:30;;;;;;;0.80;0.80;;;13.90;99.90;;;;;;5051513;28;20648;-84
2021/06/30 03:19:57;;;;;;;0.80;0.80;;;13.90;99.90;;;;;;5051287;28;20635;-84
2021/06/30 03:22:24;;;;;;;1.10;0.90;;;13.90;99.90;;;;;;5050906;28;20656;-83
2021/06/30 03:24:53;;;;;;;0.70;0.70;;;13.80;99.90;;;;;;5053335;28;20622;-84
2021/06/30 03:27:21;;;;;;;0.90;0.80;;;13.80;99.90;;;;;;5071563;28;20604;-84
2021/06/30 03:29:48;;;;;;;0.67;0.67;;;13.80;99.90;;;;;;5071167;28;20616;-84
2021/06/30 03:32:15;;;;;;;0.77;0.77;;;13.70;99.90;;;;;;5071452;28;20628;-84
2021/06/30 03:34:42;;;;;;;0.70;0.70;;;13.80;99.90;;;;;;5069934;28;20605;-83
2021/06/30 03:37:09;;;;;;;0.80;0.80;;;13.70;99.90;;;;;;5071053;28;20680;-83
2021/06/30 03:39:38;;;;;;;0.70;0.70;;;13.70;99.90;;;;;;5071133;28;20615;-83
2021/06/30 03:42:06;;;;;;;1.07;1.07;;;13.80;99.90;;;;;;5070895;28;20663;-83
2021/06/30 03:44:33;;;;;;;0.70;0.63;;;13.90;99.90;;;;;;5070425;28;20650;-83
2021/06/30 03:47:00;;;;;;;0.83;0.83;;;13.80;99.90;;;;;;5070883;28;20626;-84
2021/06/30 03:49:27;;;;;;;2.30;1.00;;;13.90;99.90;;;;;;5070319;28;21202;-83
2021/06/30 03:51:54;;;;;;;1.00;0.90;;;13.80;99.90;;;;;;5070941;28;20619;-83
2021/06/30 03:54:24;;;;;;;0.90;0.90;;;13.90;99.90;;;;;;5070262;28;20628;-83
2021/06/30 03:56:51;;;;;;;1.37;0.70;;;13.80;99.90;;;;;;5070669;28;21190;-83
2021/06/30 03:59:20;;;;;;;1.00;1.00;;;13.90;99.90;;;;;;5070823;28;21010;-83
2021/06/30 04:01:47;;;;;;;0.60;0.60;;;13.90;99.90;;;;;;5070694;28;21226;-83
2021/06/30 04:04:14;;;;;;;1.53;0.87;;;13.80;99.90;;;;;;5070714;28;20642;-83
2021/06/30 04:06:41;;;;;;;1.00;0.90;;;13.80;99.90;;;;;;5070435;28;20617;-83
2021/06/30 04:09:09;;;;;;;0.90;0.90;;;13.80;99.90;;;;;;5070479;28;20603;-83
2021/06/30 04:11:35;;;;;;;0.90;0.90;;;13.80;99.90;;;;;;5070826;28;20630;-83
2021/06/30 04:14:03;;;;;;;0.70;0.70;;;13.70;99.90;;;;;;5070541;28;20751;-83
2021/06/30 04:16:31;;;;;;;0.80;0.80;;;13.70;99.90;;;;;;5070003;28;20624;-83
2021/06/30 04:18:58;;;;;;;1.10;1.00;;;13.70;99.90;;;;;;5070542;28;21142;-83
2021/06/30 04:21:25;;;;;;;0.90;0.90;;;13.70;99.90;;;;;;5070177;28;20660;-83
2021/06/30 04:23:53;;;;;;;0.70;0.70;;;13.70;99.90;;;;;;5070573;28;20710;-82
2021/06/30 04:26:20;;;;;;;1.10;1.10;;;13.80;99.90;;;;;;5055096;28;20623;-83
2021/06/30 04:28:47;;;;;;;1.00;0.90;;;13.70;99.90;;;;;;5050046;28;20626;-83
2021/06/30 04:31:14;;;;;;;1.10;1.10;;;13.80;99.90;;;;;;5049955;28;20618;-83
2021/06/30 04:33:43;;;;;;;0.87;0.80;;;14.00;99.90;;;;;;5050282;28;20658;-83
2021/06/30 04:36:10;;;;;;;1.93;1.10;;;14.00;99.90;;;;;;5049188;28;20617;-83
2021/06/30 04:38:37;;;;;;;1.90;0.80;;;14.00;99.90;;;;;;5050283;28;20721;-83
2021/06/30 04:41:04;;;;;;;0.73;0.73;;;14.00;99.90;;;;;;5050185;28;20612;-82
2021/06/30 04:43:31;;;;;;;0.83;0.80;;;14.00;99.90;;;;;;5049730;28;20723;-83
2021/06/30 04:45:58;;;;;;;1.10;1.00;;;14.00;99.90;;;;;;5049672;28;20945;-83
2021/06/30 04:48:25;;;;;;;2.60;1.20;;;13.90;99.90;;;;;;5050250;28;20618;-83
2021/06/30 04:50:53;;;;;;;1.83;0.90;;;13.90;99.90;;;;;;5050010;28;20648;-83
2021/06/30 04:53:21;;;;;;;1.77;1.20;;;14.00;99.90;;;;;;5050159;28;20629;-82
2021/06/30 04:55:48;;;;;;;1.40;1.30;;;14.10;99.90;;;;;;5049721;28;20628;-82
2021/06/30 04:58:15;;;;;;;1.20;1.10;;;14.10;99.90;;;;;;5049595;28;20629;-83
2021/06/30 05:00:42;;;;;;;0.90;0.90;;;14.10;99.90;;;;;;5049916;28;21217;-83
2021/06/30 05:03:09;;;;;;;0.90;0.90;;;14.20;99.90;;;;;;5049838;28;20723;-83
2021/06/30 05:05:36;;;;;;;0.97;0.97;;;14.20;99.90;;;;;;5049373;28;20626;-83
2021/06/30 05:08:05;;;;;;;0.90;0.90;;;14.20;99.90;;;;;;5049794;28;20652;-82
2021/06/30 05:10:32;;;;;;;0.77;0.77;;;14.10;99.90;;;;;;5049705;28;20948;-82
2021/06/30 05:12:59;;;;;;;0.83;0.70;;;14.00;99.90;;;;;;5050007;28;20625;-82
2021/06/30 05:15:26;;;;;;;1.33;1.23;;;14.10;99.90;;;;;;5049349;28;20649;-83
2021/06/30 05:17:53;;;;;;;1.23;1.13;;;14.10;99.90;;;;;;5049851;28;20630;-82
2021/06/30 05:20:20;;;;;;;1.13;1.03;;;14.20;99.90;;;;;;5049858;28;20652;-82
2021/06/30 05:22:47;;;;;;;1.13;1.13;;;14.30;99.90;;;;;;5049606;28;21218;-82
2021/06/30 05:25:15;;;;;;;1.17;1.10;;;14.40;99.90;;;;;;5054217;28;21049;-82
2021/06/30 05:27:42;;;;;;;1.03;0.93;;;14.30;99.90;;;;;;5069791;28;20657;-82
2021/06/30 05:30:10;;;;;;;1.80;1.40;;;14.30;99.90;;;;;;5069744;28;20674;-82
2021/06/30 05:32:37;;;;;;;2.50;1.60;;;14.30;99.90;;;;;;5069631;28;20671;-84
2021/06/30 05:35:05;;;;;;;1.20;1.20;;;14.30;99.90;;;;;;5071944;28;20679;-83
2021/06/30 05:37:32;;;;;;;1.00;1.00;;;14.40;99.90;;;;;;5073800;28;20671;-83
2021/06/30 05:39:59;;;;;;;1.50;1.07;;;14.40;99.90;;;;;;5073354;28;20675;-83
2021/06/30 05:42:27;;;;;;;0.80;0.80;;;14.40;99.90;;;;;;5073108;28;20668;-84
2021/06/30 05:44:54;;;;;;;1.57;1.40;;;14.30;99.90;;;;;;5072586;28;20644;-83
2021/06/30 05:47:21;;;;;;;2.00;1.20;;;14.30;99.90;;;;;;5072882;28;20683;-83
2021/06/30 05:49:48;;;;;;;1.43;1.33;;;14.40;99.90;;;;;;5073237;28;20605;-83
2021/06/30 05:52:15;;;;;;;1.37;1.27;;;14.50;99.90;;;;;;5072544;28;20632;-84
2021/06/30 05:54:42;;;;;;;1.00;1.00;;;14.40;99.90;;;;;;5072453;28;21181;-83
2021/06/30 05:57:09;;;;;;;5.13;1.37;;;14.40;99.90;;;;;;5072831;28;21261;-84
2021/06/30 05:59:37;;;;;;;1.37;1.27;;;14.50;99.90;;;;;;5072938;28;20625;-84
2021/06/30 06:02:05;;;;;;;1.13;0.93;;;14.60;99.90;;;;;;5072683;28;21226;-84
2021/06/30 06:04:32;;;;;;;1.53;1.10;;;14.70;99.90;;;;;;5072355;28;20681;-83
2021/06/30 06:06:59;;;;;;;3.53;0.93;;;14.60;99.90;;;;;;5072377;28;20707;-84
2021/06/30 06:09:26;;;;;;;0.80;0.80;;;14.90;99.90;;;;;;5073114;28;20628;-84
2021/06/30 06:11:53;;;;;;;0.80;0.80;;;15.00;99.90;;;;;;5072855;28;20661;-83
2021/06/30 06:14:20;;;;;;;1.27;0.77;;;15.10;99.90;;;;;;5072309;28;20632;-84
2021/06/30 06:16:48;;;;;;;0.97;0.93;;;15.10;99.90;;;;;;5070734;28;20614;-83
2021/06/30 06:19:15;;;;;;;0.80;0.80;;;15.20;99.90;;;;;;5067225;28;20687;-84
2021/06/30 06:21:42;;;;;;;1.27;0.73;;;15.30;99.90;;;;;;5072468;28;21348;-84
2021/06/30 06:24:09;;;;;;;1.83;1.10;;;15.40;99.90;;;;;;5072159;28;20675;-84
2021/06/30 06:26:36;;;;;;;1.57;1.00;;;15.30;99.90;;;;;;5055349;28;20637;-84
2021/06/30 06:29:04;;;;;;;0.93;0.93;;;15.20;99.90;;;;;;5052655;28;20618;-84
2021/06/30 06:31:31;;;;;;;0.90;0.80;;;15.30;99.90;;;;;;5052192;28;20611;-84
2021/06/30 06:34:00;;;;;;;0.80;0.80;;;15.30;99.90;;;;;;5051918;28;20634;-84
2021/06/30 06:36:27;;;;;;;1.30;1.20;;;15.40;99.90;;;;;;5052093;28;20684;-84
2021/06/30 06:38:54;;;;;;;0.77;0.77;;;15.50;99.90;;;;;;5052529;28;20614;-85
2021/06/30 06:41:21;;;;;;;1.27;1.17;;;15.50;99.90;;;;;;5052164;28;20610;-84
2021/06/30 06:43:48;;;;;;;1.07;0.97;;;15.50;99.90;;;;;;5052321;28;20677;-84
2021/06/30 06:46:15;;;;;;;1.03;1.03;;;15.70;99.90;;;;;;5050857;28;20607;-84
2021/06/30 06:48:42;;;;;;;1.80;1.00;;;15.60;99.90;;;;;;5051731;28;21045;-84
2021/06/30 06:51:10;;;;;;;0.90;0.90;;;15.60;99.90;;;;;;5052218;28;20639;-84
2021/06/30 06:53:37;;;;;;;0.80;0.80;;;15.60;99.90;;;;;;5051986;28;20713;-84
2021/06/30 06:56:09;;;;;;;1.40;1.30;;;15.60;99.90;;;;;;5051936;28;20651;-84
2021/06/30 06:58:36;;;;;;;0.83;0.70;;;15.80;99.90;;;;;;5051878;28;20618;-84
2021/06/30 07:01:03;;;;;;;2.27;1.17;;;16.00;99.90;;;;;;5051350;28;20614;-84
2021/06/30 07:03:29;;;;;;;1.50;0.97;;;15.90;99.90;;;;;;5051940;28;20666;-84
2021/06/30 07:05:56;;;;;;;0.93;0.93;;;15.90;99.90;;;;;;5051856;28;20614;-83
2021/06/30 07:08:25;;;;;;;0.90;0.90;;;16.10;99.90;;;;;;5051766;28;20615;-84
2021/06/30 07:10:52;;;;;;;3.53;0.90;;;16.10;99.90;;;;;;5051629;28;20655;-84
2021/06/30 07:13:19;;;;;;;0.80;0.80;;;16.10;99.90;;;;;;5051985;28;20638;-84
2021/06/30 07:15:45;;;;;;;1.00;0.83;;;16.20;99.90;;;;;;5051042;28;20618;-84
2021/06/30 07:18:14;;;;;;;0.63;0.63;;;16.30;99.90;;;;;;5051676;28;20623;-84
2021/06/30 07:20:42;;;;;;;0.80;0.80;;;16.40;99.90;;;;;;5051457;28;21071;-84
2021/06/30 07:23:10;;;;;;;0.80;0.80;;;16.40;99.90;;;;;;5051384;28;20643;-83
2021/06/30 07:25:39;;;;;;;0.60;0.60;;;16.50;99.90;;;;;;5059927;28;20623;-84
2021/06/30 07:28:07;;;;;;;0.73;0.73;;;16.60;99.90;;;;;;5070885;28;20611;-83
2021/06/30 07:30:33;;;;;;;0.60;0.60;;;16.70;99.90;;;;;;5071278;28;20626;-84
2021/06/30 07:33:01;;;;;;;3.90;1.07;;;16.80;99.90;;;;;;5071131;28;20605;-84
2021/06/30 07:35:28;;;;;;;0.87;0.87;;;16.80;99.90;;;;;;5070645;28;20626;-85
2021/06/30 07:37:56;;;;;;;0.70;0.70;;;16.90;99.90;;;;;;5071258;28;20627;-84
2021/06/30 07:40:22;;;;;;;0.70;0.70;;;17.00;99.90;;;;;;5070856;28;20624;-84
2021/06/30 07:42:51;;;;;;;1.17;1.07;;;17.00;99.90;;;;;;5070275;28;20696;-84
2021/06/30 07:45:18;;;;;;;1.00;0.73;;;17.00;99.90;;;;;;5070912;28;20620;-84
2021/06/30 07:47:46;;;;;;;0.80;0.70;;;16.90;99.90;;;;;;5070946;28;20648;-84
2021/06/30 07:50:13;;;;;;;0.80;0.80;;;17.10;99.90;;;;;;5070780;28;20623;-83
2021/06/30 07:52:40;;;;;;;0.40;0.33;;;17.20;99.80;;;;;;5071143;28;21017;-84
2021/06/30 07:55:08;;;;;;;1.80;0.67;;;17.30;98.40;;;;;;5070282;28;20654;-83
2021/06/30 07:57:35;;;;;;;0.63;0.63;;;17.70;99.70;;;;;;5070665;28;20612;-84
2021/06/30 08:00:06;;;;;;;0.57;0.50;;;17.80;98.80;;;;;;5071034;28;20928;-83
2021/06/30 08:02:33;;;;;;;0.60;0.53;;;18.00;98.40;;;;;;5070925;28;20718;-84
2021/06/30 08:05:01;;;;;;;0.40;0.37;;;18.10;99.20;;;;;;5070859;28;20964;-83
2021/06/30 08:07:27;;;;;;;1.80;0.50;;;18.20;99.30;;;;;;5069739;28;20620;-83
2021/06/30 08:09:54;;;;;;;0.57;0.57;;;17.90;98.30;;;;;;5070360;28;20624;-83
2021/06/30 08:12:23;;;;;;;0.50;0.50;;;17.60;98.90;;;;;;5070558;28;20628;-83
2021/06/30 08:14:51;;;;;;;1.43;0.40;;;17.70;99.80;;;;;;5070468;28;20612;-83
2021/06/30 08:17:19;;;;;;;0.50;0.50;;;17.70;99.60;;;;;;5070511;28;20621;-83
2021/06/30 08:19:46;;;;;;;0.47;0.43;;;17.70;99.80;;;;;;5070570;28;20624;-83
2021/06/30 08:22:13;;;;;;;2.07;0.73;;;17.60;99.90;;;;;;5069967;28;20616;-83
2021/06/30 08:24:41;;;;;;;0.60;0.60;;;17.40;99.30;;;;;;5069188;28;21117;-83
2021/06/30 08:27:10;;;;;;;1.17;0.40;;;17.30;99.20;;;;;;5050518;28;20621;-82
2021/06/30 08:29:37;;;;;;;0.73;0.50;;;17.00;98.80;;;;;;5050440;28;20706;-83
2021/06/30 08:32:05;;;;;;;0.50;0.50;;;17.10;99.70;;;;;;5050319;28;21025;-82
2021/06/30 08:34:34;;;;;;;0.60;0.60;;;17.50;99.90;;;;;;5050300;28;20630;-83
2021/06/30 08:37:03;;;;;;;0.77;0.77;;;17.50;99.90;;;;;;5049932;28;20622;-84
2021/06/30 08:39:30;;;;;;;0.57;0.57;;;17.80;99.90;;;;;;5050640;28;20625;-83
2021/06/30 08:41:57;;;;;;;0.50;0.50;;;17.90;98.40;;;;;;5050316;28;21122;-84
2021/06/30 08:44:24;;;;;;;0.70;0.70;;;17.90;97.80;;;;;;5050026;28;20659;-84
2021/06/30 08:46:52;;;;;;;0.90;0.80;;;18.20;98.50;;;;;;5050215;28;20622;-84
2021/06/30 08:49:22;;;;;;;0.87;0.87;;;18.10;96.90;;;;;;5049911;28;20624;-84
2021/06/30 08:51:52;;;;;;;0.60;0.60;;;17.80;97.30;;;;;;5050321;28;20618;-84
2021/06/30 08:54:20;;;;;;;0.50;0.50;;;18.10;97.10;;;;;;5050132;28;20621;-84
2021/06/30 08:56:48;;;;;;;0.60;0.60;;;18.20;97.40;;;;;;5050136;28;20629;-84
2021/06/30 08:59:15;;;;;;;0.77;0.77;;;18.20;96.70;;;;;;5050047;28;21014;-83
2021/06/30 09:01:44;;;;;;;0.60;0.60;;;18.20;97.10;;;;;;5050081;28;20626;-84
2021/06/30 09:04:32;;;;;;;0.60;0.60;;;18.20;96.80;;;;;;5049606;28;20779;-84
2021/06/30 09:07:00;;;;;;;0.50;0.50;;;18.20;96.00;;;;;;5047060;28;20633;-83
2021/06/30 09:09:27;;;;;;;0.80;0.80;;;17.90;96.00;;;;;;5052275;28;20676;-84
2021/06/30 09:11:56;;;;;;;1.03;1.03;;;17.90;96.30;;;;;;5053837;28;20640;-83
2021/06/30 09:14:29;;;;;;;2.07;1.73;;;17.70;96.20;;;;;;5052802;28;21299;-84
2021/06/30 09:17:03;;;;;;;2.10;1.77;;;17.80;97.20;;;;;;5058839;28;20625;-84
2021/06/30 09:19:54;;;;;;;1.80;1.70;;;17.90;97.20;;;;;;5068916;28;20637;-84
2021/06/30 09:22:25;;;;;;;1.63;1.37;;;17.80;96.40;;;;;;5057068;28;20622;-83
2021/06/30 09:24:53;;;;;;;1.73;1.03;;;17.90;96.50;;;;;;5070032;28;20660;-83
2021/06/30 09:27:38;;;;;;;0.90;0.73;;;17.90;96.30;;;;;;5061811;28;21390;-83
2021/06/30 09:30:09;;;;;;;1.83;0.90;;;17.90;96.30;;;;;;5061720;28;21311;-83
2021/06/30 09:32:36;;;;;;;1.90;0.80;;;17.90;96.70;;;;;;5073416;28;21186;-83
2021/06/30 09:35:33;;;;;;;1.23;0.50;;;17.90;96.50;;;;;;5073081;28;20628;-84
2021/06/30 09:38:29;;;;;;;1.03;0.93;;;17.60;96.70;;;;;;5067762;28;20656;-82
2021/06/30 09:40:56;;;;;;;1.03;0.77;;;17.70;97.70;;;;;;5073383;28;20609;-82
2021/06/30 09:43:25;;;;;;;1.20;0.63;;;17.70;96.70;;;;;;5073061;28;20660;-83
2021/06/30 09:45:52;;;;;;;0.47;0.47;;;17.70;96.50;;;;;;5072524;28;21253;-82
2021/06/30 09:48:31;;;;;;;0.40;0.40;;;17.60;95.70;;;;;;5073278;28;20625;-82
2021/06/30 09:50:58;;;;;;;0.53;0.53;;;17.60;94.80;;;;;;5073516;28;20711;-82
2021/06/30 09:53:38;;;;;;;0.53;0.53;;;17.50;94.20;;;;;;5073276;28;21018;-81
2021/06/30 09:56:33;;;;;;;1.13;0.60;;;17.30;95.20;;;;;;5072527;28;20613;-81
2021/06/30 09:59:02;;;;;;;0.50;0.50;;;17.40;96.00;;;;;;5073249;28;20717;-81
2021/06/30 10:01:29;;;;;;;0.43;0.43;;;17.40;96.30;;;;;;5073030;28;20617;-81
2021/06/30 10:03:56;;;;;;;0.40;0.40;;;17.80;97.30;;;;;;5072935;28;20647;-81
2021/06/30 10:06:28;;;;;;;0.40;0.40;;;18.10;96.90;;;;;;5072354;28;20632;-82
2021/06/30 10:08:58;;;;;;;0.70;0.50;;;18.60;96.30;;;;;;5073042;28;20617;-82
2021/06/30 10:11:25;;;;;;;0.50;0.50;;;18.90;94.60;;;;;;5072907;28;20651;-81
2021/06/30 10:13:52;;;;;;;0.60;0.60;;;18.80;93.80;;;;;;5072943;28;20671;-82
2021/06/30 10:16:21;;;;;;;0.40;0.40;;;18.70;93.40;;;;;;5072111;28;20648;-82
2021/06/30 10:18:50;;;;;;;0.47;0.47;;;18.60;94.40;;;;;;5071735;28;20622;-82
2021/06/30 10:21:19;;;;;;;0.50;0.50;;;19.00;94.50;;;;;;5072125;28;20605;-82
2021/06/30 10:23:46;;;;;;;0.47;0.47;;;19.20;94.30;;;;;;5072564;28;20673;-82
2021/06/30 10:26:16;;;;;;;0.60;0.60;;;19.20;92.60;;;;;;5058777;28;20623;-82
2021/06/30 10:28:44;;;;;;;0.70;0.70;;;19.30;94.60;;;;;;5052634;28;20710;-82
2021/06/30 10:31:11;;;;;;;0.53;0.53;;;19.40;93.70;;;;;;5052390;28;20610;-81
2021/06/30 10:33:40;;;;;;;0.80;0.80;;;19.30;92.90;;;;;;5052149;28;21163;-81
2021/06/30 10:36:09;;;;;;;0.70;0.70;;;19.40;93.70;;;;;;5052400;28;20676;-81
2021/06/30 10:38:49;;;;;;;1.43;0.90;;;19.40;92.80;;;;;;5052583;28;20618;-82
2021/06/30 10:41:39;;;;;;;1.30;0.80;;;19.50;92.10;;;;;;5052006;28;20610;-81
2021/06/30 10:44:13;;;;;;;0.70;0.70;;;19.90;91.60;;;;;;5051741;28;21237;-82
2021/06/30 10:46:40;;;;;;;0.80;0.80;;;20.30;91.90;;;;;;5052098;28;21147;-82
2021/06/30 10:49:25;;;;;;;0.63;0.63;;;20.80;92.80;;;;;;5052128;28;20607;-81
2021/06/30 10:51:53;;;;;;;0.70;0.70;;;20.50;90.20;;;;;;5052522;28;20943;-82
2021/06/30 10:54:43;;;;;;;0.60;0.60;;;20.10;91.50;;;;;;5051468;28;21186;-83
2021/06/30 10:57:29;;;;;;;0.73;0.73;;;19.90;90.30;;;;;;5052037;28;20616;-81
2021/06/30 11:00:33;;;;;;;0.80;0.80;;;19.60;90.90;;;;;;5051916;28;20626;-81
2021/06/30 11:03:37;;;;;;;0.73;0.73;;;19.30;91.00;;;;;;5052180;28;20684;-81
2021/06/30 11:06:21;;;;;;;2.10;0.87;;;19.30;92.80;;;;;;5051844;28;20618;-81
2021/06/30 11:08:49;;;;;;;0.70;0.70;;;19.30;92.80;;;;;;5051018;28;20630;-81
2021/06/30 11:11:18;;;;;;;0.57;0.57;;;19.40;93.50;;;;;;5051343;28;21234;-82
2021/06/30 11:14:03;;;;;;;0.60;0.60;;;19.50;92.40;;;;;;5051789;28;20613;-81
2021/06/30 11:16:53;;;;;;;0.73;0.73;;;19.40;92.10;;;;;;5051692;28;20623;-81
2021/06/30 11:19:55;;;;;;;0.70;0.63;;;19.20;92.60;;;;;;5051131;28;20630;-81
2021/06/30 11:22:28;;;;;;;0.70;0.70;;;18.80;92.80;;;;;;5051429;28;21185;-81
2021/06/30 11:24:56;;;;;;;3.07;0.70;;;18.90;94.40;;;;;;5054085;28;20714;-81
2021/06/30 11:27:43;;;;;;;0.87;0.70;;;19.80;95.10;;;;;;5071417;28;20621;-81
2021/06/30 11:30:26;;;;;;;2.30;0.80;;;20.70;92.60;;;;;;5071426;28;20975;-82
2021/06/30 11:32:53;;;;;;;0.70;0.70;;;20.70;88.30;;;;;;5064394;28;20621;-82
2021/06/30 11:35:24;;;;;;;0.60;0.60;;;20.60;88.20;;;;;;5070743;28;20629;-82
2021/06/30 11:37:57;;;;;;;0.63;0.63;;;20.10;91.70;;;;;;5068654;28;20628;-82
2021/06/30 11:40:27;;;;;;;3.13;0.87;;;19.80;91.40;;;;;;5054079;28;21300;-82
2021/06/30 11:42:56;;;;;;;3.50;1.90;;;19.50;90.70;;;;;;5051125;28;20989;-80
2021/06/30 11:45:27;;;;;;;3.57;1.90;;;19.20;99.90;;;;;;5050997;28;21031;-82
2021/06/30 11:47:56;;;;;;;3.57;1.87;;;18.60;99.90;;;;;;5051242;28;20614;-83
2021/06/30 11:50:24;;;;;;;4.67;1.90;;;17.90;99.90;;;;;;5060700;28;20701;-82
2021/06/30 11:52:51;;;;;;;0.90;0.90;;;17.20;99.90;;;;;;5070504;28;21241;-82
2021/06/30 11:55:19;;;;;;;0.97;0.97;;;16.60;99.90;;;;;;5070903;28;20616;-82
2021/06/30 11:57:53;;;;;;;1.87;1.00;;;16.30;99.90;;;;;;5071042;28;20675;-82
2021/06/30 12:00:22;;;;;;;0.97;0.90;;;16.40;99.90;;;;;;5070887;28;21028;-82
2021/06/30 12:02:52;;;;;;;1.00;0.90;;;16.40;99.90;;;;;;5070808;28;20623;-82
2021/06/30 12:05:23;;;;;;;1.20;1.10;;;16.70;99.90;;;;;;5069745;28;20655;-81
2021/06/30 12:07:55;;;;;;;2.67;1.10;;;17.30;99.90;;;;;;5066903;28;20620;-82
2021/06/30 12:10:23;;;;;;;1.13;1.10;;;17.80;99.90;;;;;;5070043;28;21220;-83
2021/06/30 12:12:51;;;;;;;1.10;1.10;;;18.30;99.90;;;;;;5069546;28;20625;-83
2021/06/30 12:15:19;;;;;;;0.80;0.80;;;18.50;99.90;;;;;;5070411;28;20694;-83
2021/06/30 12:17:48;;;;;;;1.10;1.10;;;18.30;99.90;;;;;;5057112;28;20622;-83
2021/06/30 12:20:18;;;;;;;1.07;1.07;;;19.00;99.90;;;;;;5064991;28;20658;-86
2021/06/30 12:22:45;;;;;;;1.00;1.00;;;19.50;99.90;;;;;;5070453;28;20684;-84
2021/06/30 12:25:22;;;;;;;1.37;1.10;;;20.80;99.90;;;;;;5069963;28;21238;-85
2021/06/30 12:27:52;;;;;;;0.90;0.90;;;21.40;99.90;;;;;;5070479;28;20612;-85
2021/06/30 12:30:21;;;;;;;1.00;1.00;;;21.40;99.90;;;;;;5069793;28;20625;-84
2021/06/30 12:32:50;;;;;;;2.20;1.10;;;21.00;99.90;;;;;;5070307;28;20671;-84
2021/06/30 12:35:25;;;;;;;0.70;0.70;;;20.50;99.90;;;;;;5070231;28;20686;-83
2021/06/30 12:37:57;;;;;;;1.60;0.90;;;20.10;99.90;;;;;;5060792;28;20618;-84
2021/06/30 12:40:25;;;;;;;1.20;1.10;;;19.80;99.90;;;;;;5050170;28;21045;-82
2021/06/30 12:42:55;;;;;;;0.70;0.70;;;19.30;99.90;;;;;;5050902;28;20648;-82
2021/06/30 12:45:23;;;;;;;1.20;1.10;;;18.70;99.90;;;;;;5054385;28;20679;-83
2021/06/30 12:47:56;;;;;;;1.00;1.00;;;18.90;99.90;;;;;;5054499;28;21012;-82
2021/06/30 12:50:31;;;;;;;0.93;0.93;;;19.70;99.90;;;;;;5054387;28;20620;-83
2021/06/30 12:53:04;;;;;;;0.90;0.90;;;20.80;99.90;;;;;;5054152;28;20630;-84
2021/06/30 12:55:31;;;;;;;0.70;0.70;;;21.10;99.90;;;;;;5054106;28;20618;-83
2021/06/30 12:58:03;;;;;;;3.30;1.30;;;20.50;98.60;;;;;;5054292;28;20611;-83
2021/06/30 13:00:31;;;;;;;0.90;0.90;;;20.20;99.90;;;;;;5054105;28;21256;-84